Weather reports worldwide

Advertisment
Valencia, Spain (8285): temperature & dewpoint: 11.08.2018 01:00:00 - 17.08.2018 01:00:00 (CEST)Valencia, Spain (8285): wind speed & gusts: 11.08.2018 01:00:00 - 17.08.2018 01:00:00 (CEST)Valencia, Spain (8285): wind direction: 11.08.2018 01:00:00 - 17.08.2018 01:00:00 (CEST)Valencia, Spain (8285): precipitation: 11.08.2018 01:00:00 - 17.08.2018 01:00:00 (CEST)
Date & Time tt [°C] td [°C] ff [km/h] ff [kn] fx [km/h] fx [kn] dd rr [mm]
17.08.2018 01:00:00 24,3 19,8 1 1 9 5 NNW 0,0
17.08.2018 00:00:00 24,5 18,9 1 0 6 3 ENE 0,0
16.08.2018 23:00:00 25,0 18,7 0 0 8 5 NNE 0,0
16.08.2018 22:00:00 24,8 16,7 4 2 8 4 N 0,0
16.08.2018 21:00:00 25,9 17,5 0 0 10 5 SW 0,0
16.08.2018 20:00:00 - - - - - - - -
16.08.2018 19:00:00 27,9 16,2 5 3 20 11 SSE 0,0
16.08.2018 18:00:00 28,0 16,3 7 4 16 8 SSE 0,0
16.08.2018 17:00:00 27,3 18,8 9 5 14 8 ESE 0,0
16.08.2018 16:00:00 27,3 19,3 6 3 15 8 ESE 0,0
16.08.2018 15:00:00 26,6 20,7 7 4 15 8 ESE 0,0
16.08.2018 14:00:00 26,4 20,5 3 2 10 6 NNE -
16.08.2018 13:00:00 25,4 20,4 5 3 21 11 SE 0,0
16.08.2018 12:00:00 23,9 19,4 10 5 21 12 SW 0,0
16.08.2018 11:00:00 24,1 18,3 5 3 12 7 S 0,0
16.08.2018 10:00:00 24,1 18,5 4 2 21 11 ESE 0,0
16.08.2018 09:00:00 24,6 20,3 3 2 11 6 ESE 0,0
16.08.2018 08:00:00 24,7 21,0 5 3 10 5 N -
16.08.2018 07:00:00 24,4 20,7 4 2 16 9 N 0,0
16.08.2018 06:00:00 25,1 22,0 6 3 14 8 N 0,0
16.08.2018 05:00:00 26,0 21,9 6 3 11 6 N 0,0
16.08.2018 04:00:00 26,1 21,8 3 2 7 4 NNE 0,0
16.08.2018 03:00:00 26,1 21,5 3 2 8 4 N 0,0
16.08.2018 02:00:00 26,3 21,3 1 0 10 6 ENE -
16.08.2018 01:00:00 26,6 20,9 3 1 11 6 ESE 0,0
16.08.2018 00:00:00 26,8 20,7 6 3 12 7 ESE 0,0
15.08.2018 23:00:00 26,9 20,3 10 5 20 11 ESE 0,0
15.08.2018 22:00:00 26,9 20,3 9 5 26 14 SSE 0,0
15.08.2018 21:00:00 26,9 20,3 12 6 25 14 ESE 0,0
15.08.2018 20:00:00 27,2 20,3 11 6 25 14 ESE -
15.08.2018 19:00:00 27,1 20,5 12 7 31 17 ESE 0,0
15.08.2018 18:00:00 27,4 20,5 9 5 29 16 E 0,0
15.08.2018 17:00:00 27,8 20,6 10 5 25 13 ESE 0,0
15.08.2018 16:00:00 29,0 20,7 6 3 24 13 ESE 0,0
15.08.2018 15:00:00 29,2 19,5 4 2 22 12 E 0,0
15.08.2018 14:00:00 29,4 19,4 5 3 22 12 ENE -
15.08.2018 13:00:00 28,8 18,8 4 2 22 12 NE 0,0
15.08.2018 12:00:00 27,5 18,2 4 2 20 11 NNE 0,0
15.08.2018 11:00:00 26,9 17,7 5 3 16 8 NE 0,0
15.08.2018 10:00:00 25,8 17,9 3 2 12 6 NNE 0,0
15.08.2018 09:00:00 25,1 19,0 5 3 11 6 N 0,0
15.08.2018 08:00:00 24,7 20,0 4 2 11 6 N -
15.08.2018 07:00:00 24,3 20,2 4 2 8 4 N 0,0
15.08.2018 06:00:00 24,2 20,1 3 2 6 3 N 0,0
15.08.2018 05:00:00 24,2 20,1 3 2 8 4 N 0,0
15.08.2018 04:00:00 24,6 20,1 3 1 9 5 NNW 0,0
15.08.2018 03:00:00 24,9 19,7 3 2 12 6 N 0,0
15.08.2018 02:00:00 25,3 20,1 6 3 14 8 N -
15.08.2018 01:00:00 25,3 20,3 6 4 12 6 N 0,0
15.08.2018 00:00:00 25,6 20,4 7 4 12 6 N 0,0
14.08.2018 23:00:00 26,0 20,8 4 2 10 5 NNE 0,0
14.08.2018 22:00:00 26,2 20,1 1 0 10 5 N 0,0
14.08.2018 21:00:00 26,4 20,0 0 0 13 7 SSE 0,0
14.08.2018 20:00:00 26,9 19,5 3 2 21 11 ESE -
14.08.2018 19:00:00 27,3 18,0 8 4 22 12 ESE 0,0
14.08.2018 18:00:00 27,4 17,0 11 6 24 13 ESE 0,0
14.08.2018 17:00:00 27,9 15,5 10 5 25 14 E 0,0
14.08.2018 16:00:00 29,2 15,0 8 4 24 13 ESE 0,0
14.08.2018 15:00:00 28,7 14,5 11 6 28 15 ESE 0,0
14.08.2018 14:00:00 29,0 15,2 10 5 22 12 ESE -
14.08.2018 13:00:00 29,2 15,0 6 3 20 11 E 0,0
14.08.2018 12:00:00 29,0 15,2 5 3 16 9 ESE 0,0
14.08.2018 11:00:00 27,2 15,9 3 2 12 7 N 0,0
14.08.2018 10:00:00 26,7 16,0 5 3 13 7 NNE 0,0
14.08.2018 09:00:00 25,5 15,8 7 4 16 8 N 0,0
14.08.2018 08:00:00 24,7 14,8 7 4 13 7 N -
14.08.2018 07:00:00 24,9 15,5 3 1 14 7 NNE 0,0
14.08.2018 06:00:00 24,8 20,1 5 3 11 6 N 0,0
14.08.2018 05:00:00 24,8 21,3 5 3 14 8 NNW 0,0
14.08.2018 04:00:00 25,7 22,2 5 3 11 6 N 0,0
14.08.2018 03:00:00 26,0 22,9 4 2 11 6 N 0,0
14.08.2018 02:00:00 26,3 23,4 3 2 13 7 N -
14.08.2018 01:00:00 26,3 23,2 7 4 18 10 N 0,0
14.08.2018 00:00:00 26,7 23,6 7 4 17 9 N 0,0
13.08.2018 23:00:00 26,8 23,5 6 3 17 9 N 0,0
13.08.2018 22:00:00 27,1 23,6 5 3 18 10 NNE 0,0
13.08.2018 21:00:00 27,2 23,2 8 4 16 9 NNE 0,0
13.08.2018 20:00:00 28,2 23,1 4 2 16 8 N -
13.08.2018 19:00:00 28,9 22,9 4 2 16 8 E 0,0
13.08.2018 18:00:00 29,5 21,7 3 2 25 13 ENE 0,0
13.08.2018 17:00:00 30,5 20,5 5 3 27 15 ESE 0,0
13.08.2018 16:00:00 30,7 19,7 8 4 27 15 ESE 0,0
13.08.2018 15:00:00 29,8 18,5 14 7 26 14 ESE 0,0
13.08.2018 14:00:00 30,7 19,1 14 8 24 13 ESE -
13.08.2018 13:00:00 32,0 17,5 7 4 20 11 SE 0,0
13.08.2018 12:00:00 31,3 17,2 9 5 18 10 WSW 0,1
13.08.2018 11:00:00 29,4 16,9 7 4 14 7 WSW 0,0
13.08.2018 10:00:00 25,9 17,8 1 1 12 7 W 0,0
13.08.2018 09:00:00 24,4 17,6 5 3 9 5 WSW 0,1
13.08.2018 08:00:00 23,3 17,9 4 2 10 5 WSW -
13.08.2018 07:00:00 23,3 17,5 3 1 16 8 NW 0,0
13.08.2018 06:00:00 23,6 18,0 6 3 15 8 W 0,1
13.08.2018 05:00:00 23,9 18,1 8 4 25 13 SW 0,1
13.08.2018 04:00:00 23,5 17,2 4 2 47 26 NW 0,1
13.08.2018 03:00:00 25,2 16,3 23 12 54 29 ESE 0,2
13.08.2018 02:00:00 26,5 13,6 4 2 14 8 SE -
13.08.2018 01:00:00 26,4 13,2 10 5 23 12 N 0,0
13.08.2018 00:00:00 27,1 18,9 11 6 25 14 N 0,0
12.08.2018 23:00:00 26,9 22,1 2 1 14 7 NNE 0,0
12.08.2018 22:00:00 27,0 21,8 5 3 18 10 ESE 0,0
12.08.2018 21:00:00 27,2 22,0 4 2 27 15 NNE 0,0
12.08.2018 20:00:00 27,3 21,8 12 6 25 14 N -
12.08.2018 19:00:00 28,0 21,8 7 4 24 13 NNE 0,0
12.08.2018 18:00:00 28,1 21,4 5 3 28 15 ENE 0,0
12.08.2018 17:00:00 28,0 20,5 10 5 29 16 E 0,0
12.08.2018 16:00:00 28,5 20,5 12 6 29 15 SSE 0,0
12.08.2018 15:00:00 28,7 19,6 12 7 25 14 SE 0,0
12.08.2018 14:00:00 29,1 19,7 13 7 23 13 ESE -
12.08.2018 13:00:00 28,7 19,9 13 7 24 13 ESE 0,0
12.08.2018 12:00:00 29,4 21,4 3 2 15 8 E 0,0
12.08.2018 11:00:00 28,0 21,5 2 1 8 5 E 0,0
12.08.2018 10:00:00 26,1 21,3 1 1 6 4 N 0,0
12.08.2018 09:00:00 25,4 22,3 3 2 6 4 NNE 0,0
12.08.2018 08:00:00 25,0 22,3 3 2 6 3 N -
12.08.2018 07:00:00 25,0 22,1 3 2 6 3 NNE 0,0
12.08.2018 06:00:00 25,6 22,1 1 1 7 4 E 0,0
12.08.2018 05:00:00 26,0 22,1 3 2 8 4 SE 0,0
12.08.2018 04:00:00 26,2 21,8 3 2 11 6 ESE 0,0
12.08.2018 03:00:00 25,8 22,3 1 1 5 3 N 0,0
12.08.2018 02:00:00 26,4 22,3 2 1 9 5 NNE -
12.08.2018 01:00:00 26,7 22,1 3 2 11 6 ESE 0,0
12.08.2018 00:00:00 27,0 22,4 3 2 10 5 ESE 0,0
11.08.2018 23:00:00 27,2 22,4 1 0 14 8 ESE 0,0
11.08.2018 22:00:00 27,4 22,1 4 2 16 9 SSE 0,0
11.08.2018 21:00:00 27,5 22,2 4 2 21 11 SE 0,0
11.08.2018 20:00:00 27,9 22,6 5 3 22 12 ESE -
11.08.2018 19:00:00 28,8 20,3 8 4 27 14 SE 0,0
11.08.2018 18:00:00 29,0 19,6 11 6 29 15 ESE 0,0
11.08.2018 17:00:00 29,4 19,1 9 5 29 16 SE 0,0
11.08.2018 16:00:00 29,3 19,3 14 7 26 14 ESE 0,0
11.08.2018 15:00:00 29,2 19,8 11 6 24 13 ESE 0,0
11.08.2018 14:00:00 29,3 20,2 8 4 18 10 SE -
11.08.2018 13:00:00 29,4 20,5 4 2 17 9 SE 0,0
11.08.2018 12:00:00 28,6 19,3 6 4 18 10 NNE 0,0
11.08.2018 11:00:00 27,8 19,6 7 4 19 11 ESE 0,0
11.08.2018 10:00:00 25,9 20,5 9 5 19 10 N 0,0
11.08.2018 09:00:00 25,5 21,4 6 3 17 9 N 0,0
11.08.2018 08:00:00 25,3 20,3 5 3 12 6 NNE -
11.08.2018 07:00:00 25,1 19,9 3 2 11 6 N 0,0
11.08.2018 06:00:00 25,3 20,1 5 3 9 5 N 0,0
11.08.2018 05:00:00 25,2 20,5 4 2 11 6 N 0,0
11.08.2018 04:00:00 25,1 20,3 8 4 18 10 N 0,0
11.08.2018 03:00:00 25,0 20,5 9 5 19 10 N 0,0
11.08.2018 02:00:00 25,0 20,9 8 4 19 10 N -
11.08.2018 01:00:00 25,0 21,1 7 4 21 11 N 0,1

tt = temperature
td = dewpoint
ff = wind speed
fx = gusts
dd = wind direction
rr = precipitation

Next stations